Time;durP1;ratioP1;P1;durP2;ratioP2;P2;SDS_P1;SDS_P2;PMS_P1;PMS_P2;Temp;Humidity;BMP_temperature;BMP_pressure;BME280_temperature;BME280_humidity;BME280_pressure;Samples;Min_cycle;Max_cycle;Signal;HPM_P1;HPM_P2
2023/01/20 00:01:10;;;;;;;74.70;17.00;;;;;;;;;;5052578;28;20220;-72
2023/01/20 00:03:38;;;;;;;79.63;18.17;;;;;;;;;;5052494;28;20223;-72
2023/01/20 00:06:06;;;;;;;74.18;16.75;;;;;;;;;;5050685;28;20223;-72
2023/01/20 00:08:33;;;;;;;75.13;16.48;;;;;;;;;;5051151;28;20211;-76
2023/01/20 00:11:04;;;;;;;76.88;17.73;;;;;;;;;;5052262;28;20212;-72
2023/01/20 00:13:31;;;;;;;77.75;18.80;;;;;;;;;;5065278;28;20221;-72
2023/01/20 00:15:58;;;;;;;79.65;18.17;;;;;;;;;;5072378;28;20675;-72
2023/01/20 00:18:26;;;;;;;79.22;17.30;;;;;;;;;;5072480;28;20219;-72
2023/01/20 00:20:53;;;;;;;80.32;17.63;;;;;;;;;;5071842;28;20216;-72
2023/01/20 00:23:21;;;;;;;75.07;16.85;;;;;;;;;;5072373;28;20230;-71
2023/01/20 00:25:48;;;;;;;77.50;18.13;;;;;;;;;;5071861;28;20478;-72
2023/01/20 00:28:17;;;;;;;74.75;17.38;;;;;;;;;;5072093;28;20209;-72
2023/01/20 00:30:44;;;;;;;76.80;18.33;;;;;;;;;;5071677;28;20203;-72
2023/01/20 00:33:11;;;;;;;75.80;18.08;;;;;;;;;;5072040;28;20730;-72
2023/01/20 00:35:38;;;;;;;78.75;19.23;;;;;;;;;;5072320;28;20203;-72
2023/01/20 00:38:05;;;;;;;79.22;18.15;;;;;;;;;;5071994;28;20211;-72
2023/01/20 00:40:34;;;;;;;78.35;17.63;;;;;;;;;;5071110;28;20202;-72
2023/01/20 00:43:01;;;;;;;76.32;18.38;;;;;;;;;;5072100;28;20231;-73
2023/01/20 00:45:28;;;;;;;76.00;17.67;;;;;;;;;;5072112;28;20209;-72
2023/01/20 00:47:55;;;;;;;83.38;19.02;;;;;;;;;;5072005;28;20202;-75
2023/01/20 00:50:22;;;;;;;76.55;18.70;;;;;;;;;;5071236;28;20207;-72
2023/01/20 00:52:49;;;;;;;79.22;18.70;;;;;;;;;;5071831;28;20221;-73
2023/01/20 00:55:16;;;;;;;75.72;17.23;;;;;;;;;;5072038;28;20217;-72
2023/01/20 00:57:45;;;;;;;76.38;18.00;;;;;;;;;;5071603;28;20209;-73
2023/01/20 01:00:12;;;;;;;78.40;18.50;;;;;;;;;;5071197;28;20205;-71
2023/01/20 01:02:39;;;;;;;74.72;18.08;;;;;;;;;;5071710;28;20795;-71
2023/01/20 01:05:07;;;;;;;77.53;17.80;;;;;;;;;;5071801;28;20208;-71
2023/01/20 01:07:34;;;;;;;74.68;17.35;;;;;;;;;;5071660;28;20232;-72
2023/01/20 01:10:01;;;;;;;72.55;16.23;;;;;;;;;;5071099;28;20231;-71
2023/01/20 01:12:28;;;;;;;77.20;17.55;;;;;;;;;;5071629;28;20227;-72
2023/01/20 01:14:56;;;;;;;79.63;17.42;;;;;;;;;;5071760;28;20205;-72
2023/01/20 01:17:24;;;;;;;76.75;18.75;;;;;;;;;;5071690;28;20208;-72
2023/01/20 01:19:52;;;;;;;77.60;16.95;;;;;;;;;;5070780;28;20216;-72
2023/01/20 01:22:19;;;;;;;79.25;17.75;;;;;;;;;;5071482;28;20233;-72
2023/01/20 01:24:47;;;;;;;76.57;18.20;;;;;;;;;;5071554;28;20224;-72
2023/01/20 01:27:14;;;;;;;75.43;17.92;;;;;;;;;;5070836;28;20232;-71
2023/01/20 01:29:41;;;;;;;76.30;17.67;;;;;;;;;;5070870;28;20212;-72
2023/01/20 01:32:09;;;;;;;77.07;18.02;;;;;;;;;;5071481;28;20240;-72
2023/01/20 01:34:36;;;;;;;76.15;18.55;;;;;;;;;;5071379;28;20212;-73
2023/01/20 01:37:03;;;;;;;79.50;17.90;;;;;;;;;;5071420;28;20202;-72
2023/01/20 01:39:30;;;;;;;77.13;18.80;;;;;;;;;;5070824;28;20206;-73
2023/01/20 01:41:58;;;;;;;76.65;18.08;;;;;;;;;;5071155;28;20210;-72
2023/01/20 01:44:26;;;;;;;84.80;16.77;;;;;;;;;;5071381;28;20209;-73
2023/01/20 01:46:53;;;;;;;79.47;18.70;;;;;;;;;;5071386;28;20225;-72
2023/01/20 01:49:24;;;;;;;76.40;17.88;;;;;;;;;;5070532;28;20485;-71
2023/01/20 01:51:53;;;;;;;84.28;18.80;;;;;;;;;;5071186;28;20296;-71
2023/01/20 01:54:22;;;;;;;75.63;18.05;;;;;;;;;;5071546;28;20201;-71
2023/01/20 01:56:49;;;;;;;77.43;16.73;;;;;;;;;;5070780;28;20671;-72
2023/01/20 01:59:18;;;;;;;80.65;17.00;;;;;;;;;;5069990;28;20206;-71
2023/01/20 02:01:47;;;;;;;76.03;17.88;;;;;;;;;;5070784;28;20209;-72
2023/01/20 02:04:15;;;;;;;80.25;17.10;;;;;;;;;;5071441;28;20208;-72
2023/01/20 02:06:45;;;;;;;78.55;17.00;;;;;;;;;;5071103;28;20736;-72
2023/01/20 02:09:13;;;;;;;77.03;17.15;;;;;;;;;;5070287;28;20205;-72
2023/01/20 02:11:42;;;;;;;77.57;17.90;;;;;;;;;;5070666;28;20210;-71
2023/01/20 02:14:10;;;;;;;77.50;17.60;;;;;;;;;;5070856;28;20232;-72
2023/01/20 02:16:43;;;;;;;71.70;15.38;;;;;;;;;;5071577;28;20207;-72
2023/01/20 02:19:20;;;;;;;75.50;16.88;;;;;;;;;;5070373;28;20221;-72
2023/01/20 02:21:59;;;;;;;76.50;17.83;;;;;;;;;;5071253;28;20205;-71
2023/01/20 02:24:42;;;;;;;73.75;16.60;;;;;;;;;;5071347;28;20238;-71
2023/01/20 02:27:12;;;;;;;72.28;16.52;;;;;;;;;;5070592;28;20436;-72
2023/01/20 02:29:44;;;;;;;75.32;17.58;;;;;;;;;;5070382;28;20201;-72
2023/01/20 02:32:26;;;;;;;77.18;17.98;;;;;;;;;;5074509;28;20232;-71
2023/01/20 02:34:58;;;;;;;78.53;17.45;;;;;;;;;;5072004;28;20208;-72
2023/01/20 02:37:27;;;;;;;77.72;17.10;;;;;;;;;;5074366;28;20215;-72
2023/01/20 02:39:58;;;;;;;76.13;18.55;;;;;;;;;;5073282;28;20211;-71
2023/01/20 02:42:28;;;;;;;75.38;18.60;;;;;;;;;;5073604;28;20229;-71
2023/01/20 02:44:57;;;;;;;80.95;18.30;;;;;;;;;;5070521;28;20220;-72
2023/01/20 02:47:29;;;;;;;77.13;18.20;;;;;;;;;;5074412;28;20592;-72
2023/01/20 02:49:59;;;;;;;75.25;17.15;;;;;;;;;;5073677;28;20214;-71
2023/01/20 02:52:27;;;;;;;76.97;17.65;;;;;;;;;;5074075;28;20230;-71
2023/01/20 02:54:56;;;;;;;79.88;17.98;;;;;;;;;;5074130;28;20208;-72
2023/01/20 02:57:26;;;;;;;79.30;19.10;;;;;;;;;;5074012;28;20203;-71
2023/01/20 02:59:56;;;;;;;74.00;17.23;;;;;;;;;;5073470;28;20297;-72
2023/01/20 03:02:24;;;;;;;75.40;18.52;;;;;;;;;;5073909;28;20226;-72
2023/01/20 03:04:53;;;;;;;78.13;19.73;;;;;;;;;;5073880;28;20807;-72
2023/01/20 03:07:23;;;;;;;91.47;20.98;;;;;;;;;;5073929;28;20227;-71
2023/01/20 03:09:52;;;;;;;76.82;19.63;;;;;;;;;;5073008;28;20206;-71
2023/01/20 03:12:21;;;;;;;81.35;20.73;;;;;;;;;;5073749;28;20483;-71
2023/01/20 03:14:48;;;;;;;76.38;18.52;;;;;;;;;;5073763;28;20207;-71
2023/01/20 03:17:15;;;;;;;77.45;19.88;;;;;;;;;;5073884;28;20672;-72
2023/01/20 03:19:42;;;;;;;79.85;21.00;;;;;;;;;;5072988;28;20216;-71
2023/01/20 03:22:10;;;;;;;79.75;19.63;;;;;;;;;;5073564;28;20221;-72
2023/01/20 03:24:39;;;;;;;78.25;20.38;;;;;;;;;;5073416;28;20307;-71
2023/01/20 03:27:06;;;;;;;82.63;21.42;;;;;;;;;;5073428;28;20602;-72
2023/01/20 03:29:33;;;;;;;82.38;21.52;;;;;;;;;;5072949;28;20233;-71
2023/01/20 03:32:01;;;;;;;77.38;20.38;;;;;;;;;;5073474;28;20209;-72
2023/01/20 03:34:30;;;;;;;78.85;21.83;;;;;;;;;;5073451;28;20208;-71
2023/01/20 03:36:58;;;;;;;77.45;20.55;;;;;;;;;;5073178;28;20205;-71
2023/01/20 03:39:26;;;;;;;80.93;21.05;;;;;;;;;;5072787;28;20644;-72
2023/01/20 03:41:59;;;;;;;76.97;19.45;;;;;;;;;;5072205;28;20210;-72
2023/01/20 03:44:29;;;;;;;81.18;22.25;;;;;;;;;;5073295;28;20214;-72
2023/01/20 03:47:01;;;;;;;81.20;22.35;;;;;;;;;;5073304;28;20228;-72
2023/01/20 03:49:31;;;;;;;86.68;20.50;;;;;;;;;;5072281;28;20209;-72
2023/01/20 03:52:02;;;;;;;93.57;22.58;;;;;;;;;;5073154;28;20591;-71
2023/01/20 03:54:34;;;;;;;80.30;20.13;;;;;;;;;;5073206;28;20229;-72
2023/01/20 03:57:05;;;;;;;80.05;22.15;;;;;;;;;;5073075;28;20204;-72
2023/01/20 03:59:34;;;;;;;80.55;20.98;;;;;;;;;;5072205;28;20209;-71
2023/01/20 04:02:03;;;;;;;80.25;21.73;;;;;;;;;;5072837;28;20637;-72
2023/01/20 04:04:30;;;;;;;78.97;20.38;;;;;;;;;;5073023;28;20216;-71
2023/01/20 04:06:58;;;;;;;76.65;18.70;;;;;;;;;;5073120;28;20230;-71
2023/01/20 04:09:26;;;;;;;78.88;20.05;;;;;;;;;;5071957;28;20210;-72
2023/01/20 04:11:54;;;;;;;82.45;21.02;;;;;;;;;;5072558;28;20212;-72
2023/01/20 04:14:22;;;;;;;79.13;21.45;;;;;;;;;;5072535;28;20202;-72
2023/01/20 04:16:51;;;;;;;77.82;21.65;;;;;;;;;;5072807;28;20230;-72
2023/01/20 04:19:18;;;;;;;78.20;20.15;;;;;;;;;;5071899;28;20213;-72
2023/01/20 04:21:48;;;;;;;80.20;20.60;;;;;;;;;;5072550;28;20209;-72
2023/01/20 04:24:17;;;;;;;82.07;19.92;;;;;;;;;;5072367;28;20218;-72
2023/01/20 04:26:45;;;;;;;79.82;21.10;;;;;;;;;;5072194;28;20212;-71
2023/01/20 04:29:12;;;;;;;79.82;21.35;;;;;;;;;;5071560;28;20202;-72
2023/01/20 04:31:40;;;;;;;78.82;20.50;;;;;;;;;;5072200;28;20712;-71
2023/01/20 04:34:08;;;;;;;77.82;20.73;;;;;;;;;;5072192;28;20869;-72
2023/01/20 04:36:35;;;;;;;79.55;20.00;;;;;;;;;;5072302;28;20236;-73
2023/01/20 04:39:02;;;;;;;79.32;20.58;;;;;;;;;;5071443;28;20214;-71
2023/01/20 04:41:29;;;;;;;79.45;20.90;;;;;;;;;;5071942;28;20213;-72
2023/01/20 04:43:56;;;;;;;79.40;21.10;;;;;;;;;;5072198;28;20233;-71
2023/01/20 04:46:24;;;;;;;79.68;21.85;;;;;;;;;;5072028;28;20209;-72
2023/01/20 04:48:52;;;;;;;80.00;21.95;;;;;;;;;;5071308;28;20235;-72
2023/01/20 04:51:19;;;;;;;77.85;20.05;;;;;;;;;;5072036;28;20690;-71
2023/01/20 04:53:46;;;;;;;78.50;21.15;;;;;;;;;;5071395;28;20236;-71
2023/01/20 04:56:14;;;;;;;79.80;21.90;;;;;;;;;;5072127;28;20581;-71
2023/01/20 04:58:41;;;;;;;79.00;22.05;;;;;;;;;;5071299;28;20201;-71
2023/01/20 05:01:08;;;;;;;82.53;20.25;;;;;;;;;;5072004;28;20204;-72
2023/01/20 05:03:35;;;;;;;80.55;21.45;;;;;;;;;;5071895;28;20230;-72
2023/01/20 05:06:05;;;;;;;79.00;19.70;;;;;;;;;;5071864;28;20216;-72
2023/01/20 05:08:32;;;;;;;78.95;21.45;;;;;;;;;;5071112;28;20595;-72
2023/01/20 05:10:59;;;;;;;82.68;21.67;;;;;;;;;;5071920;28;20205;-71
2023/01/20 05:13:26;;;;;;;77.28;20.92;;;;;;;;;;5071820;28;20230;-71
2023/01/20 05:15:53;;;;;;;82.57;21.40;;;;;;;;;;5071665;28;20215;-72
2023/01/20 05:18:20;;;;;;;84.47;21.80;;;;;;;;;;5071516;28;20204;-71
2023/01/20 05:20:47;;;;;;;82.57;21.20;;;;;;;;;;5071015;28;20228;-71
2023/01/20 05:23:16;;;;;;;84.72;21.58;;;;;;;;;;5071459;28;20285;-72
2023/01/20 05:25:43;;;;;;;84.20;20.45;;;;;;;;;;5071549;28;20214;-72
2023/01/20 05:28:10;;;;;;;79.35;21.35;;;;;;;;;;5071611;28;20734;-71
2023/01/20 05:30:38;;;;;;;82.97;24.20;;;;;;;;;;5070805;28;20209;-72
2023/01/20 05:33:05;;;;;;;79.03;21.70;;;;;;;;;;5071454;28;20238;-73
2023/01/20 05:35:32;;;;;;;81.40;22.55;;;;;;;;;;5071444;28;20673;-71
2023/01/20 05:37:59;;;;;;;83.55;21.95;;;;;;;;;;5071668;28;20197;-72
2023/01/20 05:40:27;;;;;;;82.55;22.10;;;;;;;;;;5070741;28;20213;-71
2023/01/20 05:42:54;;;;;;;83.03;21.05;;;;;;;;;;5071546;28;20222;-71
2023/01/20 05:45:21;;;;;;;79.32;21.48;;;;;;;;;;5071541;28;20201;-72
2023/01/20 05:47:48;;;;;;;80.30;22.42;;;;;;;;;;5071374;28;20705;-71
2023/01/20 05:50:16;;;;;;;80.40;20.73;;;;;;;;;;5070343;28;20205;-71
2023/01/20 05:52:43;;;;;;;79.47;21.08;;;;;;;;;;5071393;28;20239;-72
2023/01/20 05:55:10;;;;;;;79.22;20.23;;;;;;;;;;5071516;28;20206;-71
2023/01/20 05:57:39;;;;;;;76.78;20.20;;;;;;;;;;5071419;28;20203;-71
2023/01/20 06:00:07;;;;;;;82.78;21.92;;;;;;;;;;5070549;28;20587;-71
2023/01/20 06:02:34;;;;;;;82.30;21.98;;;;;;;;;;5071099;28;20218;-72
2023/01/20 06:05:01;;;;;;;82.78;23.23;;;;;;;;;;5072192;28;20222;-71
2023/01/20 06:07:28;;;;;;;81.55;23.50;;;;;;;;;;5074825;28;20670;-71
2023/01/20 06:09:55;;;;;;;82.20;22.88;;;;;;;;;;5074335;28;20476;-71
2023/01/20 06:12:23;;;;;;;83.55;21.80;;;;;;;;;;5074863;28;20238;-71
2023/01/20 06:14:52;;;;;;;85.80;22.02;;;;;;;;;;5074922;28;20201;-72
2023/01/20 06:17:19;;;;;;;79.22;19.95;;;;;;;;;;5074718;28;20213;-71
2023/01/20 06:19:47;;;;;;;80.70;19.25;;;;;;;;;;5074412;28;20361;-72
2023/01/20 06:22:15;;;;;;;83.30;21.15;;;;;;;;;;5074799;28;20597;-72
2023/01/20 06:24:42;;;;;;;82.75;22.77;;;;;;;;;;5074857;28;20249;-70
2023/01/20 06:27:10;;;;;;;80.93;24.30;;;;;;;;;;5074612;28;20692;-71
2023/01/20 06:29:37;;;;;;;80.95;22.63;;;;;;;;;;5073711;28;20234;-70
2023/01/20 06:32:05;;;;;;;82.43;23.45;;;;;;;;;;5074412;28;20680;-70
2023/01/20 06:34:48;;;;;;;81.22;21.05;;;;;;;;;;5040759;28;20210;-71
2023/01/20 06:37:15;;;;;;;75.47;18.92;;;;;;;;;;5074546;28;20576;-70
2023/01/20 06:39:42;;;;;;;77.60;19.80;;;;;;;;;;5073784;28;20209;-71
2023/01/20 06:42:09;;;;;;;79.43;19.77;;;;;;;;;;5073868;28;20237;-71
2023/01/20 06:44:36;;;;;;;78.05;19.35;;;;;;;;;;5064746;28;20686;-71
2023/01/20 06:47:03;;;;;;;81.82;20.15;;;;;;;;;;5074434;28;20206;-71
2023/01/20 06:49:33;;;;;;;78.80;19.13;;;;;;;;;;5073572;28;20226;-71
2023/01/20 06:52:00;;;;;;;78.80;19.33;;;;;;;;;;5073883;28;20214;-72
2023/01/20 06:54:27;;;;;;;77.68;19.55;;;;;;;;;;5074100;28;20205;-72
2023/01/20 06:56:54;;;;;;;80.43;19.80;;;;;;;;;;5074016;28;20206;-72
2023/01/20 06:59:21;;;;;;;78.65;18.90;;;;;;;;;;5073491;28;20208;-72
2023/01/20 07:01:48;;;;;;;75.68;19.45;;;;;;;;;;5074030;28;20693;-71
2023/01/20 07:04:15;;;;;;;78.10;18.27;;;;;;;;;;5074029;28;20292;-71
2023/01/20 07:06:44;;;;;;;75.55;18.00;;;;;;;;;;5073978;28;20209;-71
2023/01/20 07:09:12;;;;;;;79.95;19.20;;;;;;;;;;5073004;28;20218;-72
2023/01/20 07:11:39;;;;;;;77.35;18.25;;;;;;;;;;5073764;28;20686;-72
2023/01/20 07:14:07;;;;;;;78.85;18.42;;;;;;;;;;5073936;28;20233;-72
2023/01/20 07:16:34;;;;;;;78.05;19.35;;;;;;;;;;5073442;28;20202;-72
2023/01/20 07:19:02;;;;;;;77.70;19.13;;;;;;;;;;5073121;28;20587;-71
2023/01/20 07:21:29;;;;;;;76.10;18.65;;;;;;;;;;5073650;28;20211;-71
2023/01/20 07:24:00;;;;;;;79.43;20.45;;;;;;;;;;5073410;28;20227;-71
2023/01/20 07:26:27;;;;;;;85.13;19.05;;;;;;;;;;5073904;28;20210;-72
2023/01/20 07:28:54;;;;;;;73.78;17.63;;;;;;;;;;5072631;28;20240;-73
2023/01/20 07:31:22;;;;;;;89.40;22.40;;;;;;;;;;5073686;28;20205;-71
2023/01/20 07:33:49;;;;;;;77.07;17.92;;;;;;;;;;5073360;28;20225;-71
2023/01/20 07:36:17;;;;;;;77.30;19.45;;;;;;;;;;5073325;28;20207;-71
2023/01/20 07:38:46;;;;;;;77.47;19.15;;;;;;;;;;5072614;28;20207;-71
2023/01/20 07:41:16;;;;;;;76.95;20.55;;;;;;;;;;5073543;28;20207;-71
2023/01/20 07:43:44;;;;;;;83.72;22.23;;;;;;;;;;5073537;28;20251;-71
2023/01/20 07:46:11;;;;;;;78.75;20.10;;;;;;;;;;5073452;28;20213;-71
2023/01/20 07:48:38;;;;;;;79.47;19.70;;;;;;;;;;5072289;28;20748;-72
2023/01/20 07:51:06;;;;;;;79.10;20.52;;;;;;;;;;5073062;28;20211;-71
2023/01/20 07:53:34;;;;;;;79.55;21.33;;;;;;;;;;5073074;28;20222;-71
2023/01/20 07:56:02;;;;;;;86.85;21.45;;;;;;;;;;5073029;28;20207;-71
2023/01/20 07:58:31;;;;;;;81.47;21.67;;;;;;;;;;5072834;28;20205;-72
2023/01/20 08:00:58;;;;;;;77.75;19.13;;;;;;;;;;5072728;28;20217;-72
2023/01/20 08:03:25;;;;;;;77.88;19.05;;;;;;;;;;5072797;28;20604;-71
2023/01/20 08:05:52;;;;;;;79.00;19.15;;;;;;;;;;5072803;28;20419;-71
2023/01/20 08:08:19;;;;;;;78.05;18.40;;;;;;;;;;5072833;28;20248;-71
2023/01/20 08:10:47;;;;;;;75.90;19.05;;;;;;;;;;5072135;28;20205;-71
2023/01/20 08:13:14;;;;;;;77.40;18.52;;;;;;;;;;5072630;28;20284;-71
2023/01/20 08:15:42;;;;;;;80.05;18.73;;;;;;;;;;5072719;28;20208;-73
2023/01/20 08:18:09;;;;;;;79.47;20.13;;;;;;;;;;5072888;28;20212;-72
2023/01/20 08:20:40;;;;;;;78.68;19.15;;;;;;;;;;5071736;28;20216;-72
2023/01/20 08:23:07;;;;;;;77.70;20.23;;;;;;;;;;5072326;28;20230;-71
2023/01/20 08:25:34;;;;;;;78.78;20.27;;;;;;;;;;5072415;28;20213;-72
2023/01/20 08:28:01;;;;;;;77.68;18.95;;;;;;;;;;5071680;28;20204;-71
2023/01/20 08:30:28;;;;;;;79.15;19.80;;;;;;;;;;5071585;28;20216;-71
2023/01/20 08:32:56;;;;;;;78.97;18.98;;;;;;;;;;5072409;28;20227;-71
2023/01/20 08:35:24;;;;;;;75.25;17.70;;;;;;;;;;5072198;28;20636;-73
2023/01/20 08:37:51;;;;;;;79.25;19.45;;;;;;;;;;5072333;28;20230;-72
2023/01/20 08:40:18;;;;;;;77.18;18.70;;;;;;;;;;5071467;28;20228;-73
2023/01/20 08:42:45;;;;;;;81.03;19.92;;;;;;;;;;5072078;28;20229;-72
2023/01/20 08:45:12;;;;;;;76.85;17.77;;;;;;;;;;5071918;28;20212;-72
2023/01/20 08:47:43;;;;;;;75.80;18.40;;;;;;;;;;5072200;28;20203;-72
2023/01/20 08:50:12;;;;;;;78.47;21.20;;;;;;;;;;5071408;28;20227;-72
2023/01/20 08:52:39;;;;;;;81.07;18.73;;;;;;;;;;5072017;28;20230;-72
2023/01/20 08:55:07;;;;;;;77.68;19.25;;;;;;;;;;5072059;28;20595;-73
2023/01/20 08:57:34;;;;;;;74.65;18.30;;;;;;;;;;5071774;28;20206;-72
2023/01/20 09:00:01;;;;;;;77.35;17.42;;;;;;;;;;5071540;28;20199;-73
2023/01/20 09:02:28;;;;;;;76.63;18.10;;;;;;;;;;5072034;28;20573;-72
2023/01/20 09:04:55;;;;;;;80.90;18.17;;;;;;;;;;5071933;28;20676;-72
2023/01/20 09:07:24;;;;;;;75.72;17.67;;;;;;;;;;5071864;28;20214;-72
2023/01/20 09:09:51;;;;;;;76.20;18.45;;;;;;;;;;5070952;28;20724;-71
2023/01/20 09:12:18;;;;;;;76.20;17.98;;;;;;;;;;5071608;28;20230;-71
2023/01/20 09:14:45;;;;;;;75.70;16.95;;;;;;;;;;5071701;28;20219;-71
2023/01/20 09:17:13;;;;;;;81.10;18.13;;;;;;;;;;5071887;28;20235;-70
2023/01/20 09:19:40;;;;;;;76.65;17.20;;;;;;;;;;5071158;28;20554;-70
2023/01/20 09:22:07;;;;;;;73.90;16.23;;;;;;;;;;5071724;28;20201;-70
2023/01/20 09:24:36;;;;;;;73.30;16.55;;;;;;;;;;5071626;28;20587;-69
2023/01/20 09:27:03;;;;;;;74.63;17.25;;;;;;;;;;5071602;28;20212;-70
2023/01/20 09:29:30;;;;;;;76.28;15.88;;;;;;;;;;5071003;28;20232;-70
2023/01/20 09:31:57;;;;;;;73.97;15.23;;;;;;;;;;5071766;28;20208;-70
2023/01/20 09:34:26;;;;;;;72.60;14.50;;;;;;;;;;5071680;28;20207;-69
2023/01/20 09:36:53;;;;;;;72.93;16.17;;;;;;;;;;5071710;28;20687;-70
2023/01/20 09:45:23;;;;;;;74.00;14.65;;;;;;;;;;5075707;28;20288;-70
2023/01/20 09:47:50;;;;;;;71.25;14.57;;;;;;;;;;5075386;28;20209;-71
2023/01/20 09:53:19;;;;;;;69.72;13.10;;;;;;;;;;5075755;28;20573;-70
2023/01/20 09:55:49;;;;;;;72.43;14.93;;;;;;;;;;5075354;28;20209;-71
2023/01/20 09:58:23;;;;;;;73.28;15.68;;;;;;;;;;5075434;28;20201;-71
2023/01/20 10:00:54;;;;;;;70.97;14.10;;;;;;;;;;5074796;28;20613;-71
2023/01/20 10:03:25;;;;;;;72.53;14.30;;;;;;;;;;5075102;28;20282;-71
2023/01/20 10:05:53;;;;;;;71.80;14.93;;;;;;;;;;5075130;28;20244;-71
2023/01/20 10:08:21;;;;;;;71.78;14.63;;;;;;;;;;5074916;28;20208;-71
2023/01/20 10:10:52;;;;;;;77.35;14.90;;;;;;;;;;5074492;28;20225;-71
2023/01/20 10:13:22;;;;;;;70.32;14.00;;;;;;;;;;5075087;28;20580;-71
2023/01/20 10:15:50;;;;;;;72.18;14.73;;;;;;;;;;5075053;28;20213;-71
2023/01/20 10:18:21;;;;;;;70.25;14.63;;;;;;;;;;5074893;28;20227;-70
2023/01/20 10:20:50;;;;;;;69.73;14.70;;;;;;;;;;5074349;28;20212;-71
2023/01/20 10:23:20;;;;;;;69.70;12.93;;;;;;;;;;5074623;28;20467;-70
2023/01/20 10:25:50;;;;;;;68.65;14.15;;;;;;;;;;5074712;28;20278;-71
2023/01/20 10:28:21;;;;;;;73.57;14.93;;;;;;;;;;5074777;28;20221;-70
2023/01/20 10:30:49;;;;;;;69.22;14.85;;;;;;;;;;5074094;28;20225;-70
2023/01/20 10:33:21;;;;;;;70.27;14.23;;;;;;;;;;5074538;28;20229;-70
2023/01/20 10:35:51;;;;;;;74.82;15.10;;;;;;;;;;5074550;28;20447;-70
2023/01/20 10:38:20;;;;;;;74.33;14.87;;;;;;;;;;5074723;28;20209;-70
2023/01/20 10:40:51;;;;;;;72.03;13.82;;;;;;;;;;5073736;28;20482;-72
2023/01/20 10:43:19;;;;;;;72.07;15.50;;;;;;;;;;5074484;28;20240;-70
2023/01/20 10:45:52;;;;;;;72.30;13.75;;;;;;;;;;5074457;28;20240;-70
2023/01/20 10:48:25;;;;;;;70.20;14.00;;;;;;;;;;5074501;28;20212;-71
2023/01/20 10:50:56;;;;;;;71.38;12.55;;;;;;;;;;5073307;28;20482;-71
2023/01/20 10:53:41;;;;;;;68.33;12.40;;;;;;;;;;5074264;28;20221;-70
2023/01/20 10:56:17;;;;;;;68.83;12.73;;;;;;;;;;5074070;28;20443;-70
2023/01/20 10:58:46;;;;;;;70.35;13.43;;;;;;;;;;5073326;28;20443;-70
2023/01/20 11:01:15;;;;;;;74.60;13.30;;;;;;;;;;5074069;28;20270;-71
2023/01/20 11:03:44;;;;;;;73.80;12.90;;;;;;;;;;5074152;28;20604;-71
2023/01/20 11:06:18;;;;;;;72.47;12.97;;;;;;;;;;5074132;28;20443;-70
2023/01/20 11:08:45;;;;;;;69.00;12.60;;;;;;;;;;5073130;28;20485;-71
2023/01/20 11:11:14;;;;;;;68.67;11.57;;;;;;;;;;5073832;28;20448;-72
2023/01/20 11:13:41;;;;;;;67.93;10.43;;;;;;;;;;5073743;28;20472;-71
2023/01/20 11:16:13;;;;;;;68.70;11.20;;;;;;;;;;5073904;28;20461;-71
2023/01/20 11:18:40;;;;;;;66.40;11.00;;;;;;;;;;5073051;28;20812;-70
2023/01/20 11:21:08;;;;;;;68.03;11.03;;;;;;;;;;5073715;28;20939;-71
2023/01/20 11:23:39;;;;;;;67.97;11.97;;;;;;;;;;5073464;28;20977;-71
2023/01/20 11:26:09;;;;;;;67.63;12.33;;;;;;;;;;5073657;28;20975;-71
2023/01/20 11:28:45;;;;;;;66.97;11.93;;;;;;;;;;5072980;28;20446;-71
2023/01/20 11:31:13;;;;;;;69.70;13.23;;;;;;;;;;5073391;28;20486;-71
2023/01/20 11:33:40;;;;;;;69.47;12.53;;;;;;;;;;5073471;28;20478;-70
2023/01/20 11:36:08;;;;;;;67.40;11.77;;;;;;;;;;5073787;28;20459;-71
2023/01/20 11:38:43;;;;;;;65.97;10.83;;;;;;;;;;5072563;28;20944;-71
2023/01/20 11:41:18;;;;;;;67.47;11.23;;;;;;;;;;5073418;28;20457;-70
2023/01/20 11:43:46;;;;;;;68.90;11.63;;;;;;;;;;5073242;28;20524;-71
2023/01/20 11:46:21;;;;;;;65.37;10.80;;;;;;;;;;5073213;28;20454;-72
2023/01/20 11:48:48;;;;;;;65.43;10.63;;;;;;;;;;5072624;28;20454;-71
2023/01/20 11:51:19;;;;;;;68.50;10.70;;;;;;;;;;5072983;28;20514;-71
2023/01/20 11:53:48;;;;;;;65.97;10.20;;;;;;;;;;5073160;28;20467;-71
2023/01/20 11:56:17;;;;;;;67.90;10.40;;;;;;;;;;5073064;28;20521;-71
2023/01/20 11:58:53;;;;;;;64.37;10.07;;;;;;;;;;5072138;28;20454;-71
2023/01/20 12:01:24;;;;;;;66.07;9.50;;;;;;;;;;5073082;28;20459;-71
2023/01/20 12:04:25;;;;;;;64.70;8.57;;;;;;;;;;5071871;28;20979;-71
2023/01/20 12:06:54;;;;;;;64.17;8.57;;;;;;;;;;5010846;28;20453;-71
2023/01/20 12:09:26;;;;;;;64.93;8.53;;;;;;;;;;5009830;28;20460;-70
2023/01/20 12:11:55;;;;;;;65.50;10.20;;;;;;;;;;5041142;28;20446;-70
2023/01/20 12:14:24;;;;;;;66.00;9.33;;;;;;;;;;5072832;28;20836;-71
2023/01/20 12:16:57;;;;;;;64.87;8.17;;;;;;;;;;5072790;28;20444;-70
2023/01/20 12:19:28;;;;;;;62.80;7.20;;;;;;;;;;5071887;28;20613;-70
2023/01/20 12:21:57;;;;;;;64.63;8.13;;;;;;;;;;5072433;28;20541;-70
2023/01/20 12:25:06;;;;;;;62.87;7.77;;;;;;;;;;5072300;28;20455;-71
2023/01/20 12:27:18;;;;;;;63.67;7.40;;;;;;;;;;5072332;28;20455;-70
2023/01/20 12:29:45;;;;;;;62.87;8.47;;;;;;;;;;5071526;28;20479;-70
2023/01/20 12:32:12;;;;;;;62.27;8.07;;;;;;;;;;5072121;28;20976;-70
2023/01/20 12:34:40;;;;;;;64.80;8.20;;;;;;;;;;5072489;28;20457;-70
2023/01/20 12:37:15;;;;;;;62.30;7.10;;;;;;;;;;5072518;28;20443;-70
2023/01/20 12:40:03;;;;;;;64.90;7.30;;;;;;;;;;5071433;28;20445;-71
2023/01/20 12:42:40;;;;;;;63.10;8.13;;;;;;;;;;5067589;28;20849;-70
2023/01/20 12:45:12;;;;;;;61.27;6.87;;;;;;;;;;5072263;28;20465;-71
2023/01/20 12:47:47;;;;;;;62.67;7.03;;;;;;;;;;5072229;28;20447;-70
2023/01/20 12:50:23;;;;;;;60.53;5.90;;;;;;;;;;5071786;28;20489;-70
2023/01/20 12:52:58;;;;;;;61.50;6.27;;;;;;;;;;5071954;28;20992;-70
2023/01/20 12:55:30;;;;;;;62.27;6.83;;;;;;;;;;5071966;28;20443;-70
2023/01/20 12:58:02;;;;;;;65.30;6.40;;;;;;;;;;5072058;28;20460;-70
2023/01/20 13:00:50;;;;;;;61.50;6.20;;;;;;;;;;5071198;28;20943;-70
2023/01/20 13:03:27;;;;;;;61.47;6.30;;;;;;;;;;5071830;28;20998;-70
2023/01/20 13:06:12;;;;;;;62.47;6.77;;;;;;;;;;5065755;28;20452;-70
2023/01/20 13:08:46;;;;;;;62.77;6.83;;;;;;;;;;5058975;28;20448;-70
2023/01/20 13:11:17;;;;;;;64.90;7.23;;;;;;;;;;5051784;28;20500;-71
2023/01/20 13:13:51;;;;;;;61.87;6.97;;;;;;;;;;5051272;28;20478;-70
2023/01/20 13:16:24;;;;;;;61.27;6.40;;;;;;;;;;5051649;28;20941;-70
2023/01/20 13:19:02;;;;;;;65.90;9.80;;;;;;;;;;5051224;28;20452;-71
2023/01/20 13:21:30;;;;;;;63.70;7.20;;;;;;;;;;5052363;28;20455;-70
2023/01/20 13:23:59;;;;;;;65.17;7.93;;;;;;;;;;5051617;28;20480;-70
2023/01/20 13:26:26;;;;;;;62.10;6.47;;;;;;;;;;5051740;28;20436;-70
2023/01/20 13:28:56;;;;;;;62.90;7.07;;;;;;;;;;5051027;28;20489;-70
2023/01/20 13:31:31;;;;;;;62.27;6.53;;;;;;;;;;5051568;28;20531;-70
2023/01/20 13:34:13;;;;;;;63.07;7.27;;;;;;;;;;5051491;28;20467;-70
2023/01/20 13:36:40;;;;;;;63.93;7.03;;;;;;;;;;5051318;28;20449;-71
2023/01/20 13:39:26;;;;;;;61.50;6.73;;;;;;;;;;5050640;28;20440;-70
2023/01/20 13:41:53;;;;;;;70.80;8.10;;;;;;;;;;5051544;28;20523;-71
2023/01/20 13:44:34;;;;;;;62.60;7.47;;;;;;;;;;5051577;28;20440;-71
2023/01/20 13:47:01;;;;;;;65.07;7.87;;;;;;;;;;5051536;28;20793;-70
2023/01/20 13:49:29;;;;;;;63.17;7.90;;;;;;;;;;5050466;28;20456;-72
2023/01/20 13:51:56;;;;;;;66.00;8.13;;;;;;;;;;5051326;28;20488;-71
2023/01/20 13:54:37;;;;;;;62.80;6.80;;;;;;;;;;5051298;28;20972;-71
2023/01/20 13:57:26;;;;;;;62.40;6.82;;;;;;;;;;5051289;28;20456;-71
2023/01/20 13:59:55;;;;;;;63.08;8.48;;;;;;;;;;5050411;28;20528;-71
2023/01/20 14:02:23;;;;;;;63.33;7.97;;;;;;;;;;5051410;28;20331;-71
2023/01/20 14:04:50;;;;;;;63.57;8.17;;;;;;;;;;5051383;28;20210;-71
2023/01/20 14:07:23;;;;;;;67.05;7.43;;;;;;;;;;5051160;28;20543;-71
2023/01/20 14:09:54;;;;;;;63.37;7.37;;;;;;;;;;5050368;28;20202;-72
2023/01/20 14:12:21;;;;;;;64.50;8.57;;;;;;;;;;5050952;28;20556;-72
2023/01/20 14:14:49;;;;;;;65.32;8.05;;;;;;;;;;5051242;28;20220;-71
2023/01/20 14:17:19;;;;;;;63.33;7.95;;;;;;;;;;5051023;28;20683;-71
2023/01/20 14:19:47;;;;;;;63.38;8.65;;;;;;;;;;5050494;28;20243;-71
2023/01/20 14:22:19;;;;;;;66.45;8.15;;;;;;;;;;5051027;28;20225;-71
2023/01/20 14:24:46;;;;;;;66.05;8.52;;;;;;;;;;5050931;28;20229;-72
2023/01/20 14:27:17;;;;;;;66.35;9.02;;;;;;;;;;5053492;28;20206;-71
2023/01/20 14:29:45;;;;;;;64.30;8.30;;;;;;;;;;5054034;28;20213;-71
2023/01/20 14:32:27;;;;;;;67.15;8.70;;;;;;;;;;5054574;28;20510;-71
2023/01/20 14:34:54;;;;;;;65.37;8.07;;;;;;;;;;5054722;28;20748;-71
2023/01/20 14:37:25;;;;;;;65.03;8.15;;;;;;;;;;5054621;28;20952;-71
2023/01/20 14:39:53;;;;;;;61.70;6.93;;;;;;;;;;5054224;28;20220;-70